Time;durP1;ratioP1;P1;durP2;ratioP2;P2;SDS_P1;SDS_P2;PMS_P1;PMS_P2;Temp;Humidity;BMP_temperature;BMP_pressure;BME280_temperature;BME280_humidity;BME280_pressure;Samples;Min_cycle;Max_cycle;Signal;HPM_P1;HPM_P2
2022/06/18 00:00:55;;;;;;;4.03;3.63;;;;;;;25.85;43.75;101677.03;5080254;28;20048;-66
2022/06/18 00:03:22;;;;;;;4.00;3.60;;;;;;;25.85;43.40;101669.88;5079633;28;20857;-66
2022/06/18 00:05:50;;;;;;;4.28;3.65;;;;;;;25.88;43.80;101684.66;5079868;28;20162;-66
2022/06/18 00:08:21;;;;;;;4.10;3.45;;;;;;;25.90;43.64;101678.09;5076159;28;20075;-66
2022/06/18 00:10:49;;;;;;;4.30;3.80;;;;;;;25.80;43.87;101680.31;5083719;28;20489;-66
2022/06/18 00:15:59;;;;;;;4.05;3.70;;;;;;;25.86;43.74;101666.19;5080739;28;20046;-66
2022/06/18 00:18:25;;;;;;;4.25;3.85;;;;;;;25.89;43.52;101668.44;5078379;28;20040;-66
2022/06/18 00:20:51;;;;;;;4.40;3.90;;;;;;;25.81;43.75;101665.94;5081464;28;20040;-66
2022/06/18 00:23:18;;;;;;;4.18;3.47;;;;;;;25.85;43.37;101667.22;5077035;28;20675;-66
2022/06/18 00:25:47;;;;;;;3.97;3.58;;;;;;;25.87;43.76;101664.34;5080554;28;20216;-66
2022/06/18 00:28:31;;;;;;;5.40;3.45;;;;;;;25.86;43.79;101662.69;5074604;28;20040;-66
2022/06/18 00:30:58;;;;;;;4.35;3.95;;;;;;;25.82;43.68;101658.75;5082174;28;20032;-66
2022/06/18 00:33:25;;;;;;;3.90;3.50;;;;;;;25.83;43.68;101649.72;5076372;28;20159;-66
2022/06/18 00:35:56;;;;;;;4.60;3.60;;;;;;;25.83;43.39;101645.22;5077607;28;20036;-66
2022/06/18 00:38:24;;;;;;;4.50;3.60;;;;;;;25.80;43.55;101645.63;5076763;28;20046;-66
2022/06/18 00:40:50;;;;;;;3.97;3.58;;;;;;;25.80;43.90;101648.28;5086686;28;20032;-68
2022/06/18 00:43:15;;;;;;;4.13;3.72;;;;;;;25.78;43.74;101639.66;5080564;28;20390;-67
2022/06/18 00:45:41;;;;;;;4.55;3.72;;;;;;;25.81;43.57;101639.25;5074048;28;20040;-67
2022/06/18 00:48:21;;;;;;;4.82;3.50;;;;;;;25.79;43.85;101637.81;5075533;28;20587;-66
2022/06/18 00:50:52;;;;;;;4.35;3.67;;;;;;;25.82;43.75;101635.56;5081550;28;20042;-67
2022/06/18 00:53:29;;;;;;;4.10;3.70;;;;;;;25.83;43.40;101634.53;5076215;28;20482;-68
2022/06/18 00:56:04;;;;;;;3.75;3.40;;;;;;;25.80;43.46;101634.13;5072254;28;20051;-68
2022/06/18 00:58:40;;;;;;;4.18;3.78;;;;;;;25.76;43.62;101628.38;5081958;28;20111;-67
2022/06/18 01:01:21;;;;;;;4.00;3.60;;;;;;;25.80;43.62;101620.78;5081801;28;20040;-68
2022/06/18 01:03:47;;;;;;;4.30;3.83;;;;;;;25.79;43.66;101632.47;5073499;28;20648;-67
2022/06/18 01:06:23;;;;;;;3.72;3.33;;;;;;;25.80;43.55;101639.47;5074692;28;20533;-68
2022/06/18 01:09:06;;;;;;;3.67;3.28;;;;;;;25.80;43.58;101636.78;5077326;28;20051;-68
2022/06/18 01:11:35;;;;;;;4.10;3.55;;;;;;;25.75;43.47;101628.56;5079260;28;20043;-67
2022/06/18 01:14:04;;;;;;;4.30;3.90;;;;;;;25.76;43.82;101649.72;5078552;28;20527;-67
2022/06/18 01:16:33;;;;;;;4.22;3.75;;;;;;;25.76;43.47;101635.56;5063002;28;20044;-68
2022/06/18 01:19:01;;;;;;;3.95;3.55;;;;;;;25.74;43.64;101634.94;5075618;28;20217;-65
2022/06/18 01:21:48;;;;;;;3.95;3.55;;;;;;;25.72;43.54;101645.00;5093779;28;20044;-67
2022/06/18 01:24:21;;;;;;;4.43;3.78;;;;;;;25.79;43.64;101637.81;5081032;28;20035;-67
2022/06/18 01:26:53;;;;;;;4.25;3.85;;;;;;;25.80;43.62;101632.28;5082593;28;20036;-67
2022/06/18 01:29:20;;;;;;;4.30;3.70;;;;;;;25.71;43.54;101628.16;5083874;28;20040;-67
2022/06/18 01:31:47;;;;;;;4.03;3.65;;;;;;;25.77;43.68;101624.69;5078934;28;20114;-65
2022/06/18 01:34:14;;;;;;;4.07;3.53;;;;;;;25.69;43.65;101610.72;5078154;28;20027;-67
2022/06/18 01:36:44;;;;;;;4.00;3.60;;;;;;;25.73;43.78;101626.13;5078475;28;20028;-64
2022/06/18 01:39:15;;;;;;;4.57;3.90;;;;;;;25.70;43.59;101604.34;5077875;28;20113;-67
2022/06/18 01:41:55;;;;;;;5.22;3.78;;;;;;;25.71;43.40;101606.81;5074370;28;20627;-68
2022/06/18 01:44:39;;;;;;;4.13;3.58;;;;;;;25.69;43.45;101602.72;5080572;28;20415;-68
2022/06/18 01:47:15;;;;;;;4.93;3.60;;;;;;;25.71;43.61;101600.66;5075803;28;20607;-67
2022/06/18 01:50:02;;;;;;;4.93;3.80;;;;;;;25.72;43.43;101596.97;5060363;28;20028;-67
2022/06/18 01:52:37;;;;;;;4.55;3.33;;;;;;;25.71;43.74;101604.16;5074438;28;20081;-67
2022/06/18 01:55:13;;;;;;;4.07;3.58;;;;;;;25.67;43.85;101599.38;5077276;28;20032;-67
2022/06/18 01:57:46;;;;;;;4.20;3.80;;;;;;;25.68;43.57;101612.56;5080171;28;20470;-67
2022/06/18 02:00:20;;;;;;;4.40;4.00;;;;;;;25.67;43.75;101602.03;5063631;28;20144;-67
2022/06/18 02:02:54;;;;;;;4.43;3.63;;;;;;;25.56;43.77;101592.78;5080403;28;20028;-67
2022/06/18 02:05:22;;;;;;;3.83;3.42;;;;;;;25.63;43.62;101609.63;5075906;28;20032;-67
2022/06/18 02:07:49;;;;;;;4.13;3.72;;;;;;;25.65;43.55;101604.91;5074945;28;20150;-66
2022/06/18 02:10:49;;;;;;;3.92;3.55;;;;;;;25.61;43.75;101612.47;5078010;28;20031;-67
2022/06/18 02:13:16;;;;;;;4.50;3.67;;;;;;;25.65;43.47;101612.09;5079472;28;20174;-65
2022/06/18 02:15:45;;;;;;;3.90;3.50;;;;;;;25.64;43.69;101607.78;5081306;28;20047;-67
2022/06/18 02:18:15;;;;;;;4.28;3.85;;;;;;;25.64;43.76;101599.78;5073742;28;20032;-67
2022/06/18 02:20:49;;;;;;;3.85;3.47;;;;;;;25.63;43.68;101611.47;5077651;28;20044;-67
2022/06/18 02:23:16;;;;;;;4.07;3.67;;;;;;;25.61;43.61;101606.31;5076893;28;20031;-67
2022/06/18 02:25:44;;;;;;;4.00;3.60;;;;;;;25.63;43.46;101614.94;5075352;28;20039;-67
2022/06/18 02:28:22;;;;;;;4.47;3.83;;;;;;;25.59;43.86;101598.53;5086937;28;20064;-67
2022/06/18 02:30:48;;;;;;;4.28;3.50;;;;;;;25.57;43.94;101605.91;5075337;28;20036;-67
2022/06/18 02:33:36;;;;;;;4.65;3.80;;;;;;;25.63;43.76;101609.63;5091468;28;20385;-67
2022/06/18 02:36:20;;;;;;;3.78;3.47;;;;;;;25.60;43.97;101612.69;5076844;28;20486;-67
2022/06/18 02:38:53;;;;;;;5.25;3.40;;;;;;;25.63;43.68;101614.94;5078454;28;20218;-67
2022/06/18 02:41:19;;;;;;;4.05;3.65;;;;;;;25.56;43.71;101601.59;5076545;28;20119;-67
2022/06/18 02:43:45;;;;;;;4.53;4.00;;;;;;;25.60;43.90;101618.03;5078064;28;20074;-67
2022/06/18 02:46:12;;;;;;;4.40;3.83;;;;;;;25.59;44.07;101597.72;5076043;28;20770;-67
2022/06/18 02:48:39;;;;;;;5.47;3.70;;;;;;;25.58;43.80;101618.22;5076255;28;20804;-67
2022/06/18 02:51:07;;;;;;;4.03;3.63;;;;;;;25.65;43.87;101617.41;5077257;28;20040;-67
2022/06/18 02:53:33;;;;;;;4.85;3.67;;;;;;;25.60;43.81;101620.69;5074547;28;20028;-67
2022/06/18 02:56:02;;;;;;;3.72;3.42;;;;;;;25.63;43.79;101622.94;5076835;28;20817;-67
2022/06/18 02:58:37;;;;;;;4.13;3.72;;;;;;;25.56;43.84;101614.94;5061647;28;20119;-67
2022/06/18 03:01:06;;;;;;;4.30;3.90;;;;;;;25.58;43.89;101625.41;5079847;28;20093;-67
2022/06/18 03:03:38;;;;;;;3.85;3.47;;;;;;;25.55;44.12;101621.28;5084123;28;20674;-67
2022/06/18 03:06:05;;;;;;;4.22;3.83;;;;;;;25.57;44.09;101621.91;5077187;28;20047;-67
2022/06/18 03:08:32;;;;;;;7.38;3.60;;;;;;;25.56;43.78;101636.28;5079160;28;20048;-67
2022/06/18 03:13:44;;;;;;;4.43;4.00;;;;;;;25.56;43.88;101625.59;5080415;28;20122;-67
2022/06/18 03:16:13;;;;;;;4.30;3.90;;;;;;;25.55;43.59;101629.28;5078773;28;20531;-67
2022/06/18 03:18:41;;;;;;;4.22;3.78;;;;;;;25.55;43.91;101625.81;5093546;28;20043;-67
2022/06/18 03:21:23;;;;;;;4.22;3.75;;;;;;;25.53;44.10;101625.19;5082641;28;20027;-67
2022/06/18 03:23:49;;;;;;;4.68;3.90;;;;;;;25.54;43.97;101630.31;5077763;28;20043;-67
2022/06/18 03:26:16;;;;;;;4.38;3.92;;;;;;;25.50;44.00;101626.41;5075232;28;20032;-67
2022/06/18 03:28:45;;;;;;;4.18;3.78;;;;;;;25.50;43.85;101630.91;5077975;28;20039;-67
2022/06/18 03:31:12;;;;;;;4.07;3.67;;;;;;;25.50;43.90;101626.41;5077915;28;20044;-66
2022/06/18 03:33:38;;;;;;;4.50;3.90;;;;;;;25.49;43.82;101637.25;5080579;28;20036;-67
2022/06/18 03:36:06;;;;;;;4.35;3.92;;;;;;;25.51;43.82;101636.06;5072904;28;20070;-67
2022/06/18 03:38:32;;;;;;;4.43;4.03;;;;;;;25.53;43.89;101635.84;5084110;28;20024;-67
2022/06/18 03:40:58;;;;;;;4.95;3.80;;;;;;;25.51;43.77;101643.22;5093983;27;20121;-67
2022/06/18 03:43:26;;;;;;;3.85;3.50;;;;;;;25.50;44.02;101644.25;5082077;28;20138;-67
2022/06/18 03:45:56;;;;;;;4.10;3.70;;;;;;;25.49;44.04;101643.41;5078252;28;20191;-67
2022/06/18 03:48:36;;;;;;;5.35;3.92;;;;;;;25.49;44.11;101658.56;5082392;28;20161;-67
2022/06/18 03:51:02;;;;;;;5.35;3.88;;;;;;;25.54;44.07;101659.66;5091897;28;20553;-67
2022/06/18 03:53:27;;;;;;;4.10;3.70;;;;;;;25.51;44.04;101665.38;5077578;28;20036;-67
2022/06/18 03:55:53;;;;;;;5.25;4.20;;;;;;;25.49;44.25;101659.41;5080132;28;20043;-67
2022/06/18 03:58:20;;;;;;;4.13;3.60;;;;;;;25.49;43.90;101670.06;5085077;28;20629;-67
2022/06/18 04:00:47;;;;;;;4.10;3.70;;;;;;;25.51;43.91;101677.91;5077750;28;20072;-67
2022/06/18 04:03:13;;;;;;;4.90;3.72;;;;;;;25.49;43.88;101678.06;5081441;28;20051;-67
2022/06/18 04:05:40;;;;;;;4.15;3.75;;;;;;;25.47;44.04;101682.78;5081329;28;20051;-67
2022/06/18 04:08:06;;;;;;;5.28;4.28;;;;;;;25.54;44.00;101685.50;5081753;28;20311;-67
2022/06/18 04:10:52;;;;;;;4.30;3.90;;;;;;;25.52;44.17;101690.22;5076849;28;20044;-67
2022/06/18 04:13:18;;;;;;;5.35;4.20;;;;;;;25.48;44.18;101681.75;5079385;28;20054;-67
2022/06/18 04:16:02;;;;;;;4.40;3.97;;;;;;;25.51;43.98;101689.38;5074639;28;20130;-67
2022/06/18 04:18:32;;;;;;;4.57;4.13;;;;;;;25.48;43.84;101686.25;5074856;28;20041;-67
2022/06/18 04:21:00;;;;;;;5.85;4.35;;;;;;;25.54;43.77;101683.66;5078942;28;20081;-67
2022/06/18 04:23:29;;;;;;;4.45;3.97;;;;;;;25.51;43.97;101683.22;5078167;28;20369;-67
2022/06/18 04:25:55;;;;;;;4.43;4.03;;;;;;;25.51;44.19;101683.22;5080849;28;20038;-66
2022/06/18 04:28:24;;;;;;;4.93;3.80;;;;;;;25.48;43.98;101679.09;5075670;28;20040;-67
2022/06/18 04:31:06;;;;;;;5.18;3.90;;;;;;;25.50;43.85;101678.91;5084386;28;20841;-67
2022/06/18 04:33:35;;;;;;;5.00;4.27;;;;;;;25.48;44.18;101680.94;5080737;28;20044;-67
2022/06/18 04:36:28;;;;;;;;;;;;;;;25.49;44.17;101691.41;5077416;28;20467;-67
2022/06/18 04:38:54;;;;;;;4.32;3.92;;;;;;;25.45;44.14;101689.31;5076966;28;19919;-67
2022/06/18 04:41:49;;;;;;;4.18;3.78;;;;;;;25.47;44.18;101692.63;5075643;28;20044;-67
2022/06/18 04:44:18;;;;;;;4.13;3.72;;;;;;;25.46;43.98;101688.31;5078160;28;20040;-67
2022/06/18 04:46:51;;;;;;;4.45;3.97;;;;;;;25.46;44.23;101683.78;5077886;28;20056;-67
2022/06/18 04:49:17;;;;;;;4.82;4.13;;;;;;;25.45;44.18;101686.66;5078345;28;20036;-66
2022/06/18 04:51:42;;;;;;;5.07;4.40;;;;;;;25.45;44.18;101694.66;5082307;28;20032;-67
2022/06/18 04:54:09;;;;;;;4.43;3.88;;;;;;;25.46;43.87;101693.63;5062772;28;20612;-67
2022/06/18 04:56:35;;;;;;;4.28;3.88;;;;;;;25.41;44.15;101688.09;5077150;28;20391;-67
2022/06/18 04:59:01;;;;;;;4.32;3.92;;;;;;;25.38;44.23;101683.16;5079760;28;20036;-67
2022/06/18 05:01:30;;;;;;;5.07;4.40;;;;;;;25.46;44.29;101685.63;5082737;28;20039;-67
2022/06/18 05:04:02;;;;;;;6.47;4.35;;;;;;;25.44;44.37;101672.50;5076845;28;20032;-67
2022/06/18 05:06:55;;;;;;;4.55;3.92;;;;;;;25.44;44.13;101682.34;5077632;28;20052;-67
2022/06/18 05:09:48;;;;;;;5.07;4.25;;;;;;;25.41;44.37;101680.91;5077851;28;20078;-67
2022/06/18 05:12:20;;;;;;;4.88;4.35;;;;;;;25.38;44.42;101675.16;5080408;28;20058;-67
2022/06/18 05:14:55;;;;;;;6.35;4.38;;;;;;;25.44;44.33;101669.84;5079840;28;20048;-67
2022/06/18 05:17:26;;;;;;;5.03;3.85;;;;;;;25.38;44.33;101672.47;5081503;28;20060;-67
2022/06/18 05:19:53;;;;;;;4.97;3.78;;;;;;;25.39;44.24;101680.28;5074601;28;20403;-67
2022/06/18 05:22:19;;;;;;;4.72;4.20;;;;;;;25.36;44.55;101683.34;5076737;28;20036;-67
2022/06/18 05:24:45;;;;;;;4.82;3.90;;;;;;;25.35;44.49;101683.53;5078018;28;20085;-67
2022/06/18 05:27:19;;;;;;;5.43;4.13;;;;;;;25.41;44.33;101693.41;5070596;28;20046;-67
2022/06/18 05:29:45;;;;;;;4.70;4.20;;;;;;;25.38;44.46;101693.81;5070311;28;20105;-67
2022/06/18 05:32:10;;;;;;;4.63;4.00;;;;;;;25.38;44.31;101697.31;5080245;28;20432;-67
2022/06/18 05:34:37;;;;;;;5.65;4.22;;;;;;;25.37;44.46;101700.16;5078401;28;20035;-67
2022/06/18 05:37:08;;;;;;;4.70;4.03;;;;;;;25.40;44.52;101705.91;5076399;28;20489;-67
2022/06/18 05:39:33;;;;;;;4.65;4.18;;;;;;;25.39;44.52;101706.94;5058846;28;20056;-67
2022/06/18 05:41:59;;;;;;;5.32;4.28;;;;;;;25.38;44.60;101707.13;5080898;28;20051;-67
2022/06/18 05:44:26;;;;;;;5.35;4.10;;;;;;;25.40;44.21;101711.25;5088420;28;20028;-67
2022/06/18 05:46:51;;;;;;;6.05;4.40;;;;;;;25.41;44.19;101715.56;5071265;28;20632;-67
2022/06/18 05:49:17;;;;;;;5.18;4.13;;;;;;;25.37;44.52;101716.97;5058695;28;20051;-66
2022/06/18 05:51:43;;;;;;;5.38;4.45;;;;;;;25.41;44.50;101722.75;5077852;28;20040;-66
2022/06/18 05:54:09;;;;;;;5.32;4.38;;;;;;;25.40;44.55;101727.25;5062234;28;20044;-66
2022/06/18 05:56:43;;;;;;;5.05;4.15;;;;;;;25.40;44.52;101729.91;5077263;28;20661;-66
2022/06/18 05:59:44;;;;;;;5.35;3.92;;;;;;;25.39;44.39;101725.59;5034030;28;20041;-66
2022/06/18 06:02:11;;;;;;;4.63;4.03;;;;;;;25.39;44.44;101724.78;5066310;28;20052;-66
2022/06/18 06:04:39;;;;;;;5.82;4.50;;;;;;;25.42;44.49;101724.38;5073031;28;20525;-66
2022/06/18 06:07:06;;;;;;;4.68;4.03;;;;;;;25.31;44.54;101720.41;5077726;28;20453;-66
2022/06/18 06:12:16;;;;;;;5.00;4.15;;;;;;;25.34;44.56;101730.72;5083119;28;20516;-66
2022/06/18 06:14:42;;;;;;;5.75;4.03;;;;;;;25.40;44.60;101735.25;5077245;28;20044;-66
2022/06/18 06:17:13;;;;;;;5.95;4.72;;;;;;;25.46;44.23;101733.63;5071653;28;20070;-66
2022/06/18 06:19:39;;;;;;;4.50;4.10;;;;;;;25.36;44.66;101730.50;5073121;28;20577;-66
2022/06/18 06:22:04;;;;;;;6.07;3.90;;;;;;;25.39;44.55;101730.13;5081759;28;20044;-67
2022/06/18 06:24:30;;;;;;;5.80;4.10;;;;;;;25.41;44.44;101736.06;5079774;28;20440;-67
2022/06/18 06:26:55;;;;;;;4.18;3.75;;;;;;;25.41;44.44;101744.06;5076219;28;20070;-65
2022/06/18 06:29:21;;;;;;;5.07;3.85;;;;;;;25.40;44.61;101740.59;5085905;28;20052;-67
2022/06/18 06:31:46;;;;;;;4.60;4.10;;;;;;;25.39;44.21;101732.78;5075326;28;20055;-67
2022/06/18 06:34:12;;;;;;;5.18;4.25;;;;;;;25.42;44.46;101741.22;5080307;28;20015;-68
2022/06/18 06:36:37;;;;;;;4.25;3.75;;;;;;;25.45;44.54;101750.66;5068421;28;20943;-67
2022/06/18 06:39:03;;;;;;;5.40;4.13;;;;;;;25.45;44.37;101751.47;5074456;28;20841;-67
2022/06/18 06:41:30;;;;;;;4.70;4.20;;;;;;;25.40;44.45;101750.44;5075381;28;20387;-68
2022/06/18 06:43:55;;;;;;;6.07;4.18;;;;;;;25.40;44.40;101748.59;5091981;28;20048;-65
2022/06/18 06:46:21;;;;;;;5.93;4.38;;;;;;;25.47;44.40;101751.28;5073237;28;20048;-68
2022/06/18 06:48:46;;;;;;;4.38;3.97;;;;;;;25.47;44.04;101743.28;5071151;28;20056;-68
2022/06/18 06:51:19;;;;;;;4.50;3.95;;;;;;;25.48;44.18;101748.41;5074732;28;20043;-68
2022/06/18 06:53:45;;;;;;;5.97;3.75;;;;;;;25.50;44.27;101750.91;5072932;28;20595;-67
2022/06/18 06:58:56;;;;;;;4.68;4.13;;;;;;;25.53;44.26;101755.84;5075118;28;20051;-67
2022/06/18 07:01:22;;;;;;;6.10;4.60;;;;;;;25.54;44.13;101754.84;5073937;28;20036;-67
2022/06/18 07:03:48;;;;;;;4.85;4.40;;;;;;;25.57;44.12;101757.94;5073843;28;20123;-68
2022/06/18 07:06:16;;;;;;;5.15;4.55;;;;;;;25.62;43.98;101768.00;5069323;28;20616;-68
2022/06/18 07:08:42;;;;;;;4.82;4.30;;;;;;;25.60;44.25;101759.38;5075066;28;20036;-68
2022/06/18 07:11:07;;;;;;;5.95;4.47;;;;;;;25.63;44.15;101764.31;5074081;28;20035;-68
2022/06/18 07:13:33;;;;;;;5.47;4.40;;;;;;;25.59;44.33;101763.88;5079551;28;20047;-68
2022/06/18 07:15:59;;;;;;;4.50;4.10;;;;;;;25.60;44.28;101768.19;5077467;28;20036;-68
2022/06/18 07:18:31;;;;;;;6.38;4.55;;;;;;;25.56;44.59;101776.78;5080546;28;20075;-68
2022/06/18 07:20:57;;;;;;;5.32;4.43;;;;;;;25.53;44.26;101755.84;5074949;28;20078;-67
2022/06/18 07:23:22;;;;;;;5.13;4.63;;;;;;;25.61;44.53;101771.69;5079026;28;20065;-67
2022/06/18 07:25:48;;;;;;;5.57;4.38;;;;;;;25.61;44.71;101772.50;5075152;28;20051;-67
2022/06/18 07:28:14;;;;;;;6.13;4.40;;;;;;;25.65;44.47;101774.78;5076475;28;20039;-67
2022/06/18 07:30:40;;;;;;;5.78;4.07;;;;;;;25.66;44.60;101774.59;5076342;28;20031;-68
2022/06/18 07:33:06;;;;;;;4.95;4.45;;;;;;;25.62;44.63;101773.34;5079501;28;20044;-68
2022/06/18 07:35:36;;;;;;;4.95;4.55;;;;;;;25.61;44.45;101782.38;5079152;28;20086;-67
2022/06/18 07:38:02;;;;;;;6.70;4.60;;;;;;;25.63;44.94;101785.66;5080002;28;20501;-68
2022/06/18 07:40:38;;;;;;;6.32;4.40;;;;;;;25.65;44.76;101793.47;5081606;28;20127;-69
2022/06/18 07:43:08;;;;;;;7.95;4.30;;;;;;;25.68;44.77;101787.78;5073602;28;20047;-68
2022/06/18 07:45:34;;;;;;;5.88;5.10;;;;;;;25.63;44.83;101785.66;5074532;28;20032;-68
2022/06/18 07:47:59;;;;;;;6.47;4.60;;;;;;;25.71;44.82;101788.22;5075643;28;20743;-69
2022/06/18 07:50:25;;;;;;;6.22;4.78;;;;;;;25.70;44.40;101781.25;5078982;28;20040;-69
2022/06/18 07:52:51;;;;;;;8.13;4.82;;;;;;;25.69;44.93;101784.94;5075762;28;20051;-69
2022/06/18 07:55:21;;;;;;;6.60;4.32;;;;;;;25.72;44.75;101778.38;5081947;28;20581;-69
2022/06/18 07:57:47;;;;;;;9.38;5.05;;;;;;;25.70;45.22;101785.75;5074620;28;20024;-69
2022/06/18 08:00:16;;;;;;;6.90;4.68;;;;;;;25.70;44.72;101789.25;5078273;28;20028;-67
2022/06/18 08:02:44;;;;;;;5.95;4.22;;;;;;;25.72;44.95;101786.38;5077933;28;21958;-67
2022/06/18 08:05:12;;;;;;;4.75;4.25;;;;;;;25.77;44.89;101790.09;5077720;28;20101;-68
2022/06/18 08:07:38;;;;;;;4.40;4.00;;;;;;;25.79;44.79;101780.03;5082879;28;20097;-67
2022/06/18 08:10:05;;;;;;;5.70;4.32;;;;;;;25.72;45.05;101784.53;5081173;28;20036;-67
2022/06/18 08:12:32;;;;;;;5.85;4.53;;;;;;;25.73;44.91;101791.50;5080863;28;20043;-68
2022/06/18 08:14:58;;;;;;;5.63;4.35;;;;;;;25.73;45.03;101788.84;5076127;28;20509;-66
2022/06/18 08:17:28;;;;;;;5.55;4.25;;;;;;;25.76;44.52;101790.28;5083894;28;20048;-66
2022/06/18 08:19:53;;;;;;;5.18;4.13;;;;;;;25.76;44.85;101791.13;5079049;28;20131;-67
2022/06/18 08:22:21;;;;;;;5.47;4.40;;;;;;;25.78;44.85;101796.25;5078887;28;20051;-67
2022/06/18 08:24:47;;;;;;;6.45;4.18;;;;;;;25.81;44.83;101788.69;5078319;28;20028;-67
2022/06/18 08:27:14;;;;;;;5.13;4.05;;;;;;;25.79;44.56;101788.06;5064886;28;20086;-66
2022/06/18 08:29:40;;;;;;;4.63;4.20;;;;;;;25.81;44.84;101796.69;5082115;28;20055;-66
2022/06/18 08:32:06;;;;;;;6.00;4.30;;;;;;;25.85;44.65;101789.94;5077518;28;20402;-66
2022/06/18 08:34:31;;;;;;;7.70;4.70;;;;;;;25.83;44.50;101780.47;5081065;28;20283;-66
2022/06/18 08:36:58;;;;;;;5.47;4.70;;;;;;;25.81;44.73;101785.19;5077389;28;20040;-66
2022/06/18 08:39:24;;;;;;;4.68;4.15;;;;;;;25.84;44.85;101784.78;5082484;28;20040;-67
2022/06/18 08:42:05;;;;;;;5.05;4.32;;;;;;;25.86;44.52;101790.78;5075199;28;20119;-66
2022/06/18 08:44:39;;;;;;;5.63;4.18;;;;;;;25.87;44.79;101789.75;5082874;28;20476;-66
2022/06/18 08:47:04;;;;;;;4.97;4.00;;;;;;;25.86;44.76;101785.44;5080220;28;20157;-66
2022/06/18 08:50:02;;;;;;;5.05;4.22;;;;;;;25.88;44.85;101786.06;5078920;28;20057;-66
2022/06/18 08:52:46;;;;;;;5.53;4.07;;;;;;;25.86;44.80;101786.25;5080094;28;20047;-66
2022/06/18 08:55:19;;;;;;;6.18;4.78;;;;;;;25.87;44.82;101787.91;5078231;28;20020;-66
2022/06/18 08:58:04;;;;;;;5.28;4.28;;;;;;;25.88;44.78;101794.06;5081773;28;20046;-66
2022/06/18 09:00:45;;;;;;;4.82;4.35;;;;;;;25.85;44.89;101794.44;5077049;28;20410;-66
2022/06/18 09:03:33;;;;;;;5.78;4.00;;;;;;;25.88;44.99;101799.41;5078052;28;20075;-66
2022/06/18 09:06:10;;;;;;;5.50;4.25;;;;;;;25.92;44.73;101797.16;5077350;28;20043;-66
2022/06/18 09:08:45;;;;;;;7.07;4.47;;;;;;;25.87;44.86;101798.59;5077944;28;20036;-66
2022/06/18 09:11:20;;;;;;;4.75;3.92;;;;;;;25.89;44.70;101811.72;5078452;28;20438;-66
2022/06/18 09:13:57;;;;;;;4.80;4.40;;;;;;;25.93;44.48;101818.31;5079927;28;20548;-66
2022/06/18 09:16:31;;;;;;;4.07;3.58;;;;;;;25.92;44.84;101819.34;5093967;28;20039;-66
2022/06/18 09:19:00;;;;;;;5.00;4.50;;;;;;;25.94;44.71;101822.63;5078724;28;20089;-66
2022/06/18 09:21:52;;;;;;;5.35;4.18;;;;;;;25.97;44.56;101824.06;5094888;28;20044;-66
2022/06/18 09:24:41;;;;;;;4.40;3.90;;;;;;;25.92;44.64;101816.66;5077857;28;20032;-66
2022/06/18 09:27:30;;;;;;;5.22;4.18;;;;;;;25.95;44.57;101807.44;5080019;28;20032;-66
2022/06/18 09:30:06;;;;;;;5.97;4.07;;;;;;;25.93;44.90;101814.81;5080011;28;20432;-66
2022/06/18 09:32:41;;;;;;;5.25;4.30;;;;;;;25.94;44.83;101813.78;5074877;28;20367;-66
2022/06/18 09:35:18;;;;;;;5.43;4.40;;;;;;;25.93;44.83;101812.16;5080846;28;20040;-66
2022/06/18 09:38:07;;;;;;;4.50;4.10;;;;;;;25.93;45.04;101825.50;5081792;28;20181;-66
2022/06/18 09:40:41;;;;;;;5.35;4.25;;;;;;;25.94;44.61;101814.63;5076999;28;20051;-66
2022/06/18 09:43:26;;;;;;;5.53;3.90;;;;;;;25.95;44.76;101813.59;5079253;28;20390;-66
2022/06/18 09:45:56;;;;;;;6.68;4.03;;;;;;;25.95;44.96;101818.94;5078828;28;20036;-66
2022/06/18 09:48:22;;;;;;;5.75;4.05;;;;;;;25.93;44.79;101812.97;5080310;28;20271;-66
2022/06/18 09:50:53;;;;;;;4.97;3.88;;;;;;;25.93;44.78;101809.47;5078735;28;20047;-66
2022/06/18 09:53:34;;;;;;;5.90;3.80;;;;;;;25.93;44.93;101818.31;5079016;28;20035;-66
2022/06/18 09:56:27;;;;;;;4.60;4.20;;;;;;;25.98;45.02;101820.38;5076676;28;20150;-66
2022/06/18 09:59:01;;;;;;;4.82;4.00;;;;;;;25.92;45.00;101824.66;5079928;28;20043;-66
2022/06/18 10:01:42;;;;;;;4.78;3.90;;;;;;;25.93;44.94;101831.66;5076961;28;20028;-66
2022/06/18 10:06:58;;;;;;;4.20;3.80;;;;;;;25.96;44.92;101801.06;5075978;28;20448;-66
2022/06/18 10:09:38;;;;;;;5.45;4.00;;;;;;;25.98;44.76;101810.53;5073977;28;20293;-66
2022/06/18 10:12:23;;;;;;;5.20;4.20;;;;;;;25.95;44.83;101802.09;5073328;28;20031;-66
2022/06/18 10:14:53;;;;;;;4.40;4.00;;;;;;;25.96;45.02;101817.91;5076516;28;20386;-66
2022/06/18 10:17:44;;;;;;;5.28;4.43;;;;;;;25.93;44.98;101801.47;5075173;28;20055;-66
2022/06/18 10:20:37;;;;;;;4.78;3.85;;;;;;;25.94;44.97;101798.59;5075217;28;20032;-66
2022/06/18 10:23:06;;;;;;;5.65;4.10;;;;;;;25.93;45.00;101807.63;5075965;28;20038;-66
2022/06/18 10:25:43;;;;;;;5.93;4.17;;;;;;;25.96;44.67;101801.06;5077121;28;20474;-66
2022/06/18 10:28:21;;;;;;;4.85;3.90;;;;;;;25.94;44.86;101801.28;5077814;28;20036;-66
2022/06/18 10:31:03;;;;;;;4.85;4.00;;;;;;;25.94;45.11;101811.94;5074395;28;20073;-66
2022/06/18 10:33:32;;;;;;;4.82;3.90;;;;;;;25.98;44.75;101802.53;5074643;28;20483;-66
2022/06/18 10:36:25;;;;;;;4.95;3.78;;;;;;;25.95;44.93;101797.59;5076349;28;20027;-66
2022/06/18 10:38:53;;;;;;;4.88;3.42;;;;;;;25.96;45.11;101796.56;5071176;28;20483;-66
2022/06/18 10:42:09;;;;;;;4.57;3.80;;;;;;;25.93;44.80;101788.13;5075783;28;20035;-66
2022/06/18 10:44:58;;;;;;;6.38;4.20;;;;;;;25.98;45.00;101785.69;5034658;28;20048;-66
2022/06/18 10:47:38;;;;;;;4.88;4.28;;;;;;;25.98;44.98;101783.84;5036267;28;20041;-66
2022/06/18 10:50:16;;;;;;;5.07;4.15;;;;;;;26.01;44.95;101782.63;5075477;28;20044;-66
2022/06/18 10:52:43;;;;;;;5.68;3.40;;;;;;;25.99;44.64;101772.13;5080400;28;20490;-66
2022/06/18 10:55:10;;;;;;;4.35;3.72;;;;;;;25.99;45.04;101779.31;5081633;28;20036;-66
2022/06/18 10:57:36;;;;;;;4.35;3.95;;;;;;;25.97;45.15;101779.53;5080713;28;20028;-66
2022/06/18 11:00:18;;;;;;;4.60;3.78;;;;;;;26.00;45.17;101783.63;5075031;28;20046;-66
2022/06/18 11:02:47;;;;;;;5.55;3.70;;;;;;;25.98;45.17;101778.50;5074273;28;20048;-66
2022/06/18 11:05:32;;;;;;;4.13;3.60;;;;;;;25.98;44.73;101781.16;5080841;28;20035;-66
2022/06/18 11:08:01;;;;;;;4.20;3.80;;;;;;;25.94;44.85;101777.25;5076687;28;20039;-66
2022/06/18 11:10:29;;;;;;;4.70;3.90;;;;;;;25.93;45.07;101758.78;5079944;28;20040;-66
2022/06/18 11:12:57;;;;;;;5.60;3.80;;;;;;;25.97;45.12;101760.03;5077031;28;20503;-66
2022/06/18 11:15:38;;;;;;;3.78;3.42;;;;;;;25.95;44.77;101770.06;5079575;28;20770;-66
2022/06/18 11:18:19;;;;;;;3.85;3.30;;;;;;;26.00;44.72;101756.94;5081736;28;20043;-66
2022/06/18 11:20:56;;;;;;;4.53;3.78;;;;;;;26.02;45.09;101763.72;5077882;28;20048;-66
2022/06/18 11:23:22;;;;;;;3.83;3.47;;;;;;;25.99;44.87;101764.13;5082711;28;20474;-66
2022/06/18 11:25:52;;;;;;;4.32;3.45;;;;;;;25.96;45.09;101761.03;5077840;28;20024;-66
2022/06/18 11:28:23;;;;;;;;;;;;;;;26.00;44.88;101770.28;5082054;28;20067;-66
2022/06/18 11:30:51;;;;;;;4.13;3.72;;;;;;;25.99;44.87;101768.66;5078824;28;19923;-66
2022/06/18 11:33:38;;;;;;;3.80;3.38;;;;;;;26.02;44.87;101769.06;5082900;28;20085;-66
2022/06/18 11:36:13;;;;;;;3.95;3.55;;;;;;;25.98;44.73;101770.50;5079209;28;20036;-66
2022/06/18 11:38:40;;;;;;;4.93;3.85;;;;;;;26.00;44.78;101780.97;5079606;28;20040;-66
2022/06/18 11:41:14;;;;;;;4.43;3.38;;;;;;;25.90;44.75;101770.66;5077244;28;20596;-66
2022/06/18 11:44:10;;;;;;;5.00;4.50;;;;;;;26.00;44.95;101795.13;5081450;28;20036;-66
2022/06/18 11:46:45;;;;;;;3.60;3.30;;;;;;;26.05;44.75;101789.22;5076378;28;20056;-66
2022/06/18 11:49:27;;;;;;;4.57;3.55;;;;;;;26.02;44.70;101794.94;5080243;28;20040;-66
2022/06/18 11:52:02;;;;;;;3.83;3.53;;;;;;;26.01;44.99;101782.63;5076261;28;20051;-66
2022/06/18 11:54:40;;;;;;;3.80;3.35;;;;;;;25.99;45.11;101774.00;5081327;28;20127;-66
2022/06/18 11:57:30;;;;;;;3.47;3.10;;;;;;;26.04;44.72;101785.75;5080180;28;20036;-66
2022/06/18 12:00:17;;;;;;;3.42;3.13;;;;;;;26.00;45.03;101789.81;5079922;28;20060;-66
2022/06/18 12:02:52;;;;;;;4.70;3.75;;;;;;;26.09;45.16;101793.16;5073096;28;20461;-66